Time;durP1;ratioP1;P1;durP2;ratioP2;P2;SDS_P1;SDS_P2;PMS_P1;PMS_P2;Temp;Humidity;BMP_temperature;BMP_pressure;BME280_temperature;BME280_humidity;BME280_pressure;Samples;Min_cycle;Max_cycle;Signal;HPM_P1;HPM_P2
2021/04/18 00:02:29;;;;;;;7.03;5.00;;;;;;;12.49;47.10;102200.19;6285430;28;20285;-53
2021/04/18 00:05:50;;;;;;;8.37;5.17;;;;;;;12.87;45.75;102205.59;6278396;28;20235;-53
2021/04/18 00:09:12;;;;;;;10.77;5.53;;;;;;;12.96;45.96;102199.50;6282131;28;20220;-51
2021/04/18 00:12:32;;;;;;;6.70;5.00;;;;;;;12.75;46.59;102198.53;6279078;28;20234;-51
2021/04/18 00:15:53;;;;;;;10.47;6.70;;;;;;;12.83;46.50;102187.25;6278778;28;20520;-50
2021/04/18 00:19:13;;;;;;;9.30;6.50;;;;;;;12.96;46.30;102191.66;6272494;28;20617;-54
2021/04/18 00:22:34;;;;;;;9.93;6.10;;;;;;;12.93;46.68;102191.63;6277861;28;20670;-53
2021/04/18 00:25:55;;;;;;;9.50;6.67;;;;;;;12.64;47.12;102188.91;6271441;28;20318;-53
2021/04/18 00:29:15;;;;;;;8.63;6.47;;;;;;;12.43;47.99;102181.84;6275574;28;20247;-53
2021/04/18 00:32:37;;;;;;;7.80;5.47;;;;;;;12.41;48.34;102181.88;6277761;28;20309;-52
2021/04/18 00:35:57;;;;;;;7.83;4.97;;;;;;;12.36;48.29;102176.59;6274033;28;20235;-52
2021/04/18 00:39:17;;;;;;;6.80;5.07;;;;;;;12.16;49.01;102176.50;6283869;28;20231;-52
2021/04/18 00:42:39;;;;;;;9.27;6.20;;;;;;;12.32;48.73;102180.06;6281774;28;20248;-53
2021/04/18 00:45:59;;;;;;;7.53;5.03;;;;;;;12.47;48.20;102170.56;6274257;28;20227;-54
2021/04/18 00:49:19;;;;;;;11.13;5.93;;;;;;;12.09;49.33;102177.31;6283221;28;20239;-52
2021/04/18 00:52:40;;;;;;;6.20;5.07;;;;;;;12.11;49.44;102169.50;6280256;28;20322;-51
2021/04/18 00:56:01;;;;;;;7.67;5.63;;;;;;;12.07;49.54;102165.97;6272654;28;20545;-55
2021/04/18 00:59:23;;;;;;;9.20;5.77;;;;;;;11.99;49.46;102173.78;6284000;28;20232;-50
2021/04/18 01:02:44;;;;;;;8.43;5.73;;;;;;;12.18;48.91;102168.69;6277795;28;20220;-51
2021/04/18 01:06:05;;;;;;;9.20;6.47;;;;;;;12.18;49.35;102173.91;6259360;28;20632;-52
2021/04/18 01:09:33;;;;;;;8.53;5.20;;;;;;;12.18;49.42;102163.44;6277924;28;20223;-53
2021/04/18 01:12:55;;;;;;;9.53;6.00;;;;;;;11.93;49.85;102157.19;6268173;28;20235;-51
2021/04/18 01:16:17;;;;;;;6.80;4.73;;;;;;;12.19;48.83;102165.19;6288172;28;20619;-53
2021/04/18 01:19:38;;;;;;;8.93;4.97;;;;;;;12.02;50.01;102157.28;6269569;28;20228;-52
2021/04/18 01:23:01;;;;;;;12.13;6.03;;;;;;;11.96;49.80;102154.59;6285485;28;20223;-49
2021/04/18 01:26:27;;;;;;;7.60;5.13;;;;;;;11.98;49.91;102156.38;6273312;28;20219;-53
2021/04/18 01:29:51;;;;;;;10.50;6.73;;;;;;;11.92;50.29;102152.84;6279796;28;20236;-52
2021/04/18 01:33:11;;;;;;;10.73;7.57;;;;;;;12.00;49.84;102156.38;6274511;28;20271;-49
2021/04/18 01:36:32;;;;;;;6.80;5.43;;;;;;;11.92;50.10;102160.66;6271446;28;20592;-51
2021/04/18 01:39:54;;;;;;;10.60;6.23;;;;;;;11.63;50.82;102156.97;6280204;28;20231;-49
2021/04/18 01:43:16;;;;;;;7.47;5.43;;;;;;;11.70;50.94;102159.63;6286649;28;20285;-49
2021/04/18 01:46:36;;;;;;;9.83;5.33;;;;;;;11.55;51.23;102160.34;6278280;28;20219;-52
2021/04/18 01:49:58;;;;;;;8.30;4.87;;;;;;;11.70;50.30;102155.25;6283638;28;20547;-50
2021/04/18 01:53:18;;;;;;;11.20;6.03;;;;;;;11.65;50.43;102161.31;6279816;28;20230;-50
2021/04/18 01:56:41;;;;;;;7.33;5.40;;;;;;;11.45;51.37;102158.53;6272047;28;20231;-52
2021/04/18 02:00:04;;;;;;;7.03;5.13;;;;;;;11.53;50.78;102147.28;6277915;28;20219;-53
2021/04/18 02:03:43;;;;;;;9.83;5.40;;;;;;;11.46;51.01;102137.69;6285467;28;20238;-53
2021/04/18 02:07:06;;;;;;;10.57;5.00;;;;;;;11.22;51.41;102135.72;6261290;28;20228;-52
2021/04/18 02:10:27;;;;;;;10.13;4.77;;;;;;;11.39;51.25;102144.56;6242433;28;20576;-52
2021/04/18 02:13:50;;;;;;;7.00;4.93;;;;;;;11.55;50.30;102135.13;6278808;28;20312;-52
2021/04/18 02:17:32;;;;;;;10.87;5.70;;;;;;;11.30;50.54;102141.00;6252183;28;20235;-49
2021/04/18 02:20:53;;;;;;;5.90;4.63;;;;;;;11.19;51.38;102135.72;6265135;28;20223;-54
2021/04/18 02:24:14;;;;;;;9.60;6.50;;;;;;;11.28;50.00;102134.91;6279366;28;20227;-53
2021/04/18 02:27:35;;;;;;;6.33;5.53;;;;;;;11.22;50.87;102143.53;6278232;28;20267;-54
2021/04/18 02:31:08;;;;;;;10.07;5.23;;;;;;;11.01;51.28;102139.00;6280918;28;20242;-51
2021/04/18 02:34:35;;;;;;;9.27;5.60;;;;;;;10.91;51.46;102139.75;6243939;28;20227;-53
2021/04/18 02:37:55;;;;;;;6.90;4.80;;;;;;;10.77;51.38;102130.06;6256032;28;20247;-53
2021/04/18 02:41:15;;;;;;;6.87;4.20;;;;;;;10.78;51.03;102138.78;6243533;28;20232;-53
2021/04/18 02:44:36;;;;;;;5.00;4.40;;;;;;;10.58;51.52;102135.91;6251646;28;20236;-53
2021/04/18 02:47:59;;;;;;;8.23;4.83;;;;;;;10.52;51.68;102144.53;6256772;28;20279;-51
2021/04/18 02:51:20;;;;;;;6.90;4.27;;;;;;;10.59;51.11;102130.72;6247396;28;20659;-52
2021/04/18 02:54:40;;;;;;;7.47;4.23;;;;;;;10.44;51.51;102139.22;6243783;28;20232;-54
2021/04/18 02:58:03;;;;;;;7.57;4.17;;;;;;;10.54;50.84;102135.00;6250252;28;20232;-54
2021/04/18 03:01:24;;;;;;;5.23;4.27;;;;;;;10.52;51.08;102138.44;6243635;28;20231;-53
2021/04/18 03:04:47;;;;;;;7.23;3.87;;;;;;;10.35;51.24;102131.31;6251431;28;20232;-53
2021/04/18 03:08:08;;;;;;;9.57;4.00;;;;;;;10.26;51.45;102138.97;6246660;28;20236;-53
2021/04/18 03:11:29;;;;;;;10.47;3.90;;;;;;;10.32;51.33;102133.00;6254372;28;20755;-54
2021/04/18 03:14:53;;;;;;;6.83;4.33;;;;;;;10.19;51.41;102131.91;6248241;28;20224;-54
2021/04/18 03:18:16;;;;;;;7.27;3.70;;;;;;;10.26;51.27;102133.75;6253617;28;20226;-53
2021/04/18 03:21:38;;;;;;;6.00;3.40;;;;;;;10.24;51.69;102132.88;6251292;28;20224;-51
2021/04/18 03:24:58;;;;;;;6.87;4.97;;;;;;;10.20;51.54;102129.34;6254708;28;20224;-51
2021/04/18 03:28:20;;;;;;;6.00;3.53;;;;;;;10.12;51.60;102119.66;6244493;28;20606;-53
2021/04/18 03:31:44;;;;;;;5.00;3.20;;;;;;;10.17;51.53;102124.06;6271070;28;20224;-49
2021/04/18 03:35:07;;;;;;;5.43;3.53;;;;;;;10.12;51.67;102130.97;6277915;28;20235;-55
2021/04/18 03:38:29;;;;;;;7.40;3.90;;;;;;;9.84;52.34;102127.09;6280573;28;20855;-49
2021/04/18 03:41:50;;;;;;;7.23;4.97;;;;;;;10.15;51.70;102138.81;6281159;28;20278;-51
2021/04/18 03:45:12;;;;;;;9.73;4.80;;;;;;;10.25;50.98;102134.59;6287909;28;20219;-53
2021/04/18 03:48:37;;;;;;;6.50;3.60;;;;;;;10.07;51.74;102140.44;6262618;28;20231;-54
2021/04/18 03:51:58;;;;;;;16.47;4.73;;;;;;;10.16;51.36;102142.31;6271417;28;20220;-52
2021/04/18 03:55:19;;;;;;;9.87;4.40;;;;;;;9.86;52.34;102138.38;6267076;28;20247;-54
2021/04/18 03:58:41;;;;;;;8.50;4.50;;;;;;;9.92;52.04;102140.22;6270077;28;20236;-55
2021/04/18 04:02:05;;;;;;;8.70;3.77;;;;;;;10.04;51.29;102138.66;6271574;28;20246;-54
2021/04/18 04:05:27;;;;;;;5.70;3.30;;;;;;;9.96;51.91;102129.00;6278514;28;20227;-53
2021/04/18 04:08:49;;;;;;;6.47;3.63;;;;;;;9.96;51.41;102135.06;6267584;28;20231;-51
2021/04/18 04:12:14;;;;;;;14.17;4.70;;;;;;;9.95;51.48;102127.25;6282253;28;20247;-53
2021/04/18 04:15:38;;;;;;;4.93;3.87;;;;;;;10.15;51.15;102136.19;6282089;28;20239;-55
2021/04/18 04:19:02;;;;;;;6.83;4.63;;;;;;;9.95;51.74;102127.25;6264155;28;20688;-51
2021/04/18 04:22:52;;;;;;;10.30;5.73;;;;;;;10.14;51.08;102134.47;6261553;28;20243;-54
2021/04/18 04:26:16;;;;;;;10.63;4.30;;;;;;;10.22;50.50;102138.03;6271637;28;20247;-53
2021/04/18 04:29:37;;;;;;;5.83;5.10;;;;;;;10.15;50.65;102145.75;6274865;28;20231;-57
2021/04/18 04:32:57;;;;;;;8.63;5.53;;;;;;;10.17;51.00;102144.03;6275779;28;20236;-53
2021/04/18 04:36:19;;;;;;;7.73;4.83;;;;;;;10.23;50.43;102146.72;6279087;28;20242;-55
2021/04/18 04:39:39;;;;;;;7.20;5.47;;;;;;;10.07;50.99;102144.78;6279503;28;20504;-54
2021/04/18 04:43:00;;;;;;;10.07;5.10;;;;;;;10.04;50.99;102149.09;6275925;28;20244;-52
2021/04/18 04:46:21;;;;;;;9.13;5.13;;;;;;;9.99;51.23;102152.47;6268613;28;20318;-52
2021/04/18 04:49:42;;;;;;;5.53;4.40;;;;;;;10.19;50.89;102165.75;6272422;28;20246;-51
2021/04/18 04:53:02;;;;;;;9.10;4.60;;;;;;;10.14;51.25;102149.19;6273485;28;20632;-52
2021/04/18 04:56:22;;;;;;;7.47;5.20;;;;;;;10.14;51.02;102149.19;6280240;28;21123;-54
2021/04/18 04:59:43;;;;;;;8.67;4.50;;;;;;;10.31;50.20;102150.31;6247764;28;20228;-52
2021/04/18 05:03:05;;;;;;;5.80;4.27;;;;;;;10.48;49.76;102160.09;6255273;28;20224;-52
2021/04/18 05:06:25;;;;;;;11.47;5.03;;;;;;;10.50;49.96;102156.66;6282241;28;20565;-53
2021/04/18 05:09:46;;;;;;;7.83;5.50;;;;;;;10.49;49.67;102161.84;6274952;28;20840;-52
2021/04/18 05:13:06;;;;;;;8.07;4.10;;;;;;;10.08;51.21;102165.63;6274125;28;20228;-47
2021/04/18 05:16:27;;;;;;;7.57;3.87;;;;;;;9.32;54.53;102167.84;6283135;28;20722;-52
2021/04/18 05:19:48;;;;;;;6.40;4.20;;;;;;;9.77;53.30;102165.16;6281074;28;20604;-55
2021/04/18 05:23:08;;;;;;;8.73;4.13;;;;;;;9.95;52.80;102167.16;6289550;28;20226;-48
2021/04/18 05:26:29;;;;;;;11.63;5.10;;;;;;;10.09;52.86;102177.78;6286218;28;20227;-51
2021/04/18 05:29:50;;;;;;;7.87;4.50;;;;;;;10.08;53.18;102170.84;6282921;28;20235;-51
2021/04/18 05:33:10;;;;;;;10.07;5.50;;;;;;;10.24;52.49;102169.31;6287686;28;20227;-52
2021/04/18 05:36:31;;;;;;;12.27;4.63;;;;;;;10.27;52.40;102176.28;6278694;28;20965;-51
2021/04/18 05:39:51;;;;;;;12.80;5.63;;;;;;;10.25;52.79;102178.84;6292393;28;20528;-54
2021/04/18 05:43:12;;;;;;;8.30;5.07;;;;;;;9.64;54.20;102174.47;6289366;28;20238;-51
2021/04/18 05:46:32;;;;;;;6.37;4.53;;;;;;;9.87;53.53;102168.78;6279592;28;20231;-52
2021/04/18 05:49:53;;;;;;;9.67;4.73;;;;;;;9.91;53.67;102167.97;6282717;28;20227;-52
2021/04/18 05:53:14;;;;;;;8.13;5.60;;;;;;;10.24;53.27;102162.38;6281331;28;20232;-49
2021/04/18 05:56:35;;;;;;;10.27;6.57;;;;;;;10.51;52.64;102165.38;6281136;28;20302;-55
2021/04/18 05:59:55;;;;;;;8.67;5.30;;;;;;;10.56;52.63;102174.09;6287656;28;20242;-57
2021/04/18 06:03:16;;;;;;;7.60;4.93;;;;;;;10.56;52.36;102180.16;6287625;28;20231;-55
2021/04/18 06:06:36;;;;;;;8.93;4.93;;;;;;;10.27;53.10;102171.06;6292221;28;20219;-49
2021/04/18 06:09:57;;;;;;;8.90;5.47;;;;;;;10.50;52.65;102167.06;6278165;28;20230;-53
2021/04/18 06:13:18;;;;;;;11.73;4.63;;;;;;;10.45;52.74;102166.16;6277204;28;20569;-53
2021/04/18 06:16:39;;;;;;;7.63;4.60;;;;;;;10.61;51.96;102173.28;6264757;28;20257;-50
2021/04/18 06:19:59;;;;;;;11.03;4.77;;;;;;;10.73;52.05;102167.34;6281591;28;20227;-50
2021/04/18 06:23:21;;;;;;;11.43;5.43;;;;;;;10.89;51.60;102157.13;6278371;28;20232;-52
2021/04/18 06:26:43;;;;;;;11.67;5.47;;;;;;;10.78;51.68;102152.66;6291348;28;20231;-54
2021/04/18 06:30:05;;;;;;;7.43;4.13;;;;;;;11.10;51.10;102154.72;6282595;28;20227;-49
2021/04/18 06:33:25;;;;;;;13.77;5.83;;;;;;;11.08;50.91;102151.22;6282440;28;20228;-49
2021/04/18 06:36:46;;;;;;;6.83;4.43;;;;;;;11.15;50.88;102150.44;6280219;28;20243;-51
2021/04/18 06:40:08;;;;;;;10.77;4.83;;;;;;;11.53;50.06;102157.72;6277107;28;20223;-52
2021/04/18 06:43:30;;;;;;;6.90;4.13;;;;;;;11.82;49.49;102170.13;6284178;28;20219;-53
2021/04/18 06:46:51;;;;;;;9.33;5.30;;;;;;;11.40;49.75;102171.56;6293830;28;20917;-55
2021/04/18 06:50:12;;;;;;;7.60;4.23;;;;;;;11.55;49.59;102161.22;6289851;28;20262;-51
2021/04/18 06:53:33;;;;;;;8.00;4.87;;;;;;;11.62;49.26;102157.81;6277279;28;20224;-52
2021/04/18 06:56:54;;;;;;;8.37;5.00;;;;;;;11.70;49.36;102157.00;6283909;28;20649;-55
2021/04/18 07:00:16;;;;;;;8.40;5.33;;;;;;;11.86;48.97;102143.19;6271742;28;20231;-49
2021/04/18 07:03:38;;;;;;;7.37;4.70;;;;;;;11.92;48.74;102142.38;6279380;28;20231;-53
2021/04/18 07:06:59;;;;;;;10.20;4.37;;;;;;;12.10;48.45;102145.13;6277712;28;20235;-52
2021/04/18 07:10:27;;;;;;;8.10;5.50;;;;;;;12.41;47.84;102161.81;6283476;28;20620;-55
2021/04/18 07:13:48;;;;;;;10.57;6.07;;;;;;;12.55;47.73;102158.41;6285292;28;20234;-54
2021/04/18 07:17:11;;;;;;;7.00;4.00;;;;;;;13.04;46.37;102147.22;6276820;28;20323;-49
2021/04/18 07:20:32;;;;;;;11.00;6.40;;;;;;;13.07;46.20;102152.47;6279725;28;20236;-50
2021/04/18 07:24:05;;;;;;;9.10;3.87;;;;;;;12.88;47.00;102143.72;6280591;28;20223;-52
2021/04/18 07:27:43;;;;;;;6.20;4.00;;;;;;;12.63;47.34;102141.00;6277775;28;20261;-54
2021/04/18 07:31:04;;;;;;;11.33;6.20;;;;;;;12.56;47.67;102140.13;6276748;28;20235;-51
2021/04/18 07:34:27;;;;;;;8.73;4.77;;;;;;;12.77;47.34;102144.53;6278271;28;20234;-52
2021/04/18 07:37:49;;;;;;;7.80;4.30;;;;;;;12.62;48.00;102154.97;6284492;28;20231;-52
2021/04/18 07:41:17;;;;;;;8.90;4.90;;;;;;;12.86;47.62;102145.44;6284532;28;20258;-52
2021/04/18 07:44:38;;;;;;;7.47;5.00;;;;;;;13.24;46.87;102145.53;6285975;28;20222;-51
2021/04/18 07:48:00;;;;;;;9.97;5.60;;;;;;;13.43;46.62;102135.94;6271415;28;20228;-54
2021/04/18 07:51:24;;;;;;;8.93;5.07;;;;;;;13.55;46.25;102149.06;6279695;28;20223;-50
2021/04/18 07:54:45;;;;;;;7.17;4.37;;;;;;;13.65;46.11;102143.78;6278915;28;20223;-53
2021/04/18 07:58:05;;;;;;;10.50;6.33;;;;;;;13.54;46.17;102144.69;6280583;28;20255;-49
2021/04/18 08:01:25;;;;;;;11.97;5.00;;;;;;;14.21;45.08;102141.94;6272911;28;20303;-55
2021/04/18 08:04:48;;;;;;;5.97;3.97;;;;;;;14.04;45.57;102134.16;6275306;28;20688;-54
2021/04/18 08:08:13;;;;;;;5.87;5.13;;;;;;;14.62;44.47;102130.44;6274231;28;20231;-52
2021/04/18 08:11:33;;;;;;;8.73;5.63;;;;;;;14.20;45.00;102135.84;6280290;28;20231;-50
2021/04/18 08:15:12;;;;;;;12.07;6.33;;;;;;;14.34;45.29;102141.03;6282402;28;20228;-54
2021/04/18 08:18:36;;;;;;;7.10;4.30;;;;;;;15.04;49.72;102126.72;6279801;28;20266;-54
2021/04/18 08:21:56;;;;;;;13.77;4.73;;;;;;;15.92;46.17;102123.38;6286737;28;20240;-56
2021/04/18 08:25:17;;;;;;;9.67;5.80;;;;;;;15.65;44.01;102127.97;6274106;28;20322;-54
2021/04/18 08:29:09;;;;;;;5.73;5.03;;;;;;;15.67;46.83;102118.31;6266066;28;20231;-53
2021/04/18 08:32:41;;;;;;;7.93;5.63;;;;;;;16.30;45.26;102120.31;6273495;28;20227;-56
2021/04/18 08:36:11;;;;;;;7.83;5.10;;;;;;;16.45;43.16;102118.38;6281225;28;20227;-53
2021/04/18 08:39:36;;;;;;;56.03;44.30;;;;;;;16.77;43.54;102119.69;6281575;28;20218;-52
2021/04/18 08:43:16;;;;;;;1042.33;934.40;;;;;;;17.56;42.51;102116.72;6287218;28;20226;-55
2021/04/18 08:46:37;;;;;;;831.70;755.03;;;;;;;16.84;43.65;102121.38;6285787;28;20235;-54
2021/04/18 08:50:08;;;;;;;1537.67;999.90;;;;;;;17.51;43.54;102129.97;6278369;28;20231;-57
2021/04/18 08:53:49;;;;;;;1372.97;996.50;;;;;;;17.51;43.46;102132.63;6285376;28;20234;-58
2021/04/18 08:57:12;;;;;;;710.03;604.70;;;;;;;17.27;41.51;102128.59;6281925;28;20628;-56
2021/04/18 09:00:39;;;;;;;28.77;22.97;;;;;;;16.97;42.43;102132.59;6277245;28;20236;-55
2021/04/18 09:04:01;;;;;;;13.07;9.27;;;;;;;16.78;41.68;102131.97;6290291;28;20227;-55
2021/04/18 09:07:24;;;;;;;7.60;6.37;;;;;;;16.71;41.78;102136.41;6291814;28;20395;-56
2021/04/18 09:11:02;;;;;;;12.17;7.80;;;;;;;16.72;41.90;102138.19;6282843;28;20255;-55
2021/04/18 09:14:28;;;;;;;8.27;6.83;;;;;;;17.25;40.97;102127.75;6281092;28;20552;-51
2021/04/18 09:17:49;;;;;;;10.83;6.17;;;;;;;17.62;40.87;102132.41;6284924;28;20231;-56
2021/04/18 09:21:14;;;;;;;9.90;6.47;;;;;;;17.25;41.25;102128.66;6287724;28;20660;-54
2021/04/18 09:24:40;;;;;;;8.17;6.27;;;;;;;17.27;41.42;102120.72;6290730;28;20231;-54
2021/04/18 09:28:01;;;;;;;8.97;5.87;;;;;;;17.00;42.92;102112.38;6289981;28;20516;-55
2021/04/18 09:31:21;;;;;;;12.10;10.83;;;;;;;17.27;42.40;102120.72;6288665;28;20223;-57
2021/04/18 09:34:44;;;;;;;8.40;7.43;;;;;;;17.20;41.65;102119.09;6278769;28;20244;-56
2021/04/18 09:38:06;;;;;;;6.37;5.00;;;;;;;16.68;42.60;102125.97;6283177;28;20231;-55
2021/04/18 09:41:30;;;;;;;9.30;7.17;;;;;;;16.77;43.01;102123.22;6280908;28;20226;-52
2021/04/18 09:44:55;;;;;;;11.23;7.27;;;;;;;16.90;42.66;102110.75;6285725;28;20554;-55
2021/04/18 09:48:18;;;;;;;8.37;5.67;;;;;;;16.61;42.79;102121.66;6274630;28;20311;-51
2021/04/18 09:51:53;;;;;;;7.90;5.17;;;;;;;17.00;41.97;102117.66;6283046;28;20624;-55
2021/04/18 09:55:19;;;;;;;8.13;5.97;;;;;;;16.93;42.16;102126.50;6281055;28;20247;-53
2021/04/18 09:58:41;;;;;;;9.60;5.63;;;;;;;17.36;41.92;102120.56;6275156;28;20761;-56
2021/04/18 10:02:09;;;;;;;7.97;6.40;;;;;;;17.37;41.60;102122.31;6281004;28;20318;-55
2021/04/18 10:05:31;;;;;;;8.73;5.50;;;;;;;17.82;40.27;102126.81;6288732;28;20231;-56
2021/04/18 10:08:57;;;;;;;6.73;5.30;;;;;;;17.57;40.86;102121.97;6282254;28;22930;-56
2021/04/18 10:12:17;;;;;;;6.97;4.77;;;;;;;17.19;40.82;102120.84;6288438;28;20239;-54
2021/04/18 10:15:51;;;;;;;5.57;4.77;;;;;;;18.06;39.86;102117.59;6285812;28;20231;-57
2021/04/18 10:19:15;;;;;;;6.87;4.97;;;;;;;18.19;38.87;102118.22;6284464;28;20627;-56
2021/04/18 10:22:35;;;;;;;6.87;5.13;;;;;;;18.47;38.51;102115.84;6258899;28;20921;-54
2021/04/18 10:25:56;;;;;;;6.67;5.50;;;;;;;18.71;38.61;102103.91;6282459;28;20231;-57
2021/04/18 10:29:17;;;;;;;7.90;4.73;;;;;;;18.28;38.68;102107.47;6268229;28;20227;-53
2021/04/18 10:32:37;;;;;;;6.47;4.30;;;;;;;18.28;38.61;102118.91;6269384;28;20243;-56
2021/04/18 10:35:58;;;;;;;5.70;4.80;;;;;;;18.40;37.44;102107.22;6288394;28;20219;-56
2021/04/18 10:39:18;;;;;;;5.57;4.87;;;;;;;18.43;37.51;102106.28;6286761;28;20226;-57
2021/04/18 10:42:40;;;;;;;6.00;5.03;;;;;;;18.76;37.03;102111.72;6284293;28;20226;-55
2021/04/18 10:46:01;;;;;;;8.77;5.80;;;;;;;18.35;37.52;102118.75;6284190;28;20215;-55
2021/04/18 10:49:22;;;;;;;8.97;4.47;;;;;;;18.72;37.06;102107.41;6277954;28;20247;-53
2021/04/18 10:52:43;;;;;;;7.03;5.20;;;;;;;19.38;37.43;102100.56;6262569;28;20235;-49
2021/04/18 10:56:04;;;;;;;7.17;5.33;;;;;;;19.47;37.74;102093.28;6274538;28;20231;-55
2021/04/18 10:59:26;;;;;;;8.13;5.77;;;;;;;19.78;36.81;102092.50;6283188;28;20255;-65
2021/04/18 11:02:46;;;;;;;6.87;5.40;;;;;;;19.98;37.38;102080.50;6289041;28;20227;-69
2021/04/18 11:06:07;;;;;;;6.07;4.77;;;;;;;20.71;35.79;102074.81;6279811;28;20258;-68
2021/04/18 11:09:27;;;;;;;6.33;4.40;;;;;;;20.87;35.73;102080.47;6282549;28;20231;-69
2021/04/18 11:12:48;;;;;;;9.37;5.07;;;;;;;20.68;33.76;102076.69;6284156;28;20285;-66
2021/04/18 11:16:09;;;;;;;6.87;5.80;;;;;;;20.63;34.46;102072.41;6282292;28;20743;-69
2021/04/18 11:19:29;;;;;;;6.55;4.82;;;;;;;21.22;34.81;102074.00;6291429;28;20235;-66
2021/04/18 11:22:50;;;;;;;11.07;5.90;;;;;;;21.41;34.48;102074.25;6289698;28;20222;-66
2021/04/18 11:26:11;;;;;;;8.05;5.07;;;;;;;22.08;31.97;102071.88;6288066;28;20231;-73
2021/04/18 11:29:32;;;;;;;5.03;4.43;;;;;;;21.30;34.04;102068.44;6278958;28;20503;-68
2021/04/18 11:32:53;;;;;;;8.48;5.85;;;;;;;21.41;33.75;102066.28;6282690;28;20625;-69
2021/04/18 11:36:15;;;;;;;5.80;4.60;;;;;;;21.16;34.20;102066.28;6284426;28;20227;-66
2021/04/18 11:39:36;;;;;;;6.28;5.28;;;;;;;20.95;35.06;102072.28;6275655;28;20255;-67
2021/04/18 11:42:57;;;;;;;7.22;4.97;;;;;;;21.97;33.77;102072.31;6290851;28;20266;-71
2021/04/18 11:46:18;;;;;;;6.63;5.68;;;;;;;21.66;32.51;102068.13;6283121;28;20215;-72
2021/04/18 11:49:39;;;;;;;7.93;4.80;;;;;;;23.24;31.55;102061.09;6276248;28;20238;-67
2021/04/18 11:52:59;;;;;;;6.18;5.47;;;;;;;22.43;30.63;102065.28;6286003;28;20569;-67
2021/04/18 11:56:20;;;;;;;7.35;5.20;;;;;;;21.69;33.38;102065.34;6287011;28;20763;-65
2021/04/18 11:59:40;;;;;;;7.75;5.82;;;;;;;21.98;32.05;102060.75;6280558;28;21048;-65
2021/04/18 12:03:01;;;;;;;7.07;5.32;;;;;;;22.29;31.15;102070.25;6279058;28;20226;-67
2021/04/18 12:06:22;;;;;;;6.82;4.28;;;;;;;24.58;29.35;102064.88;6288155;28;20352;-68
2021/04/18 12:09:42;;;;;;;8.60;4.80;;;;;;;27.08;24.74;102053.28;6284510;28;20262;-67
2021/04/18 12:13:03;;;;;;;5.93;4.88;;;;;;;28.52;22.96;102056.03;6289392;28;20620;-70
2021/04/18 12:16:23;;;;;;;5.57;5.07;;;;;;;28.64;22.19;102052.56;6293841;28;20602;-65
2021/04/18 12:19:44;;;;;;;4.30;3.88;;;;;;;30.77;20.67;102042.03;6266990;28;20251;-67
2021/04/18 12:23:06;;;;;;;6.50;5.45;;;;;;;30.01;21.18;102045.81;6257804;28;20232;-63
2021/04/18 12:26:27;;;;;;;10.88;4.75;;;;;;;29.09;22.30;102042.38;6261157;28;20335;-67
2021/04/18 12:29:47;;;;;;;7.03;5.80;;;;;;;29.22;21.13;102045.97;6254348;28;20617;-67
2021/04/18 12:33:08;;;;;;;6.75;5.07;;;;;;;29.72;20.59;102053.25;6259382;28;20231;-66
2021/04/18 12:36:28;;;;;;;6.72;5.50;;;;;;;28.86;22.03;102039.44;6256276;28;20223;-69
2021/04/18 12:39:49;;;;;;;6.85;5.95;;;;;;;28.03;22.60;102050.22;6254536;28;20709;-67
2021/04/18 12:43:10;;;;;;;8.30;5.25;;;;;;;27.81;22.76;102050.66;6247469;28;20630;-66
2021/04/18 12:46:30;;;;;;;6.13;5.10;;;;;;;26.86;24.33;102041.19;6259618;28;20232;-66
2021/04/18 12:49:51;;;;;;;5.95;4.70;;;;;;;27.92;22.67;102047.34;6251258;28;20228;-66
2021/04/18 12:53:11;;;;;;;7.57;5.25;;;;;;;25.38;25.72;102045.78;6247454;28;20862;-66
2021/04/18 12:56:34;;;;;;;8.30;7.50;;;;;;;23.47;28.93;102051.28;6247295;28;20244;-68
2021/04/18 12:59:55;;;;;;;6.05;5.45;;;;;;;22.95;29.34;102043.72;6255301;28;20236;-66
2021/04/18 13:03:16;;;;;;;9.07;5.47;;;;;;;24.58;26.55;102040.91;6258156;28;20263;-67
2021/04/18 13:06:36;;;;;;;7.85;5.97;;;;;;;25.71;25.32;102043.13;6260235;28;20228;-66
2021/04/18 13:09:57;;;;;;;5.97;4.88;;;;;;;24.11;27.23;102037.75;6259164;28;20322;-68
2021/04/18 13:13:18;;;;;;;6.93;4.15;;;;;;;23.85;28.49;102038.97;6247003;28;20496;-66
2021/04/18 13:16:39;;;;;;;9.90;4.10;;;;;;;22.50;29.21;102048.19;6278276;28;20246;-67
2021/04/18 13:19:59;;;;;;;5.28;4.78;;;;;;;22.70;29.96;102034.13;6288139;28;20231;-67
2021/04/18 13:23:19;;;;;;;5.38;4.35;;;;;;;25.25;26.77;102032.22;6276825;28;20247;-67
2021/04/18 13:26:40;;;;;;;5.43;4.20;;;;;;;26.80;23.31;102025.53;6277856;28;20227;-66
2021/04/18 13:30:03;;;;;;;9.18;4.70;;;;;;;25.37;25.22;102036.06;6283204;28;20234;-55
2021/04/18 13:33:23;;;;;;;7.57;5.50;;;;;;;24.89;26.88;102041.13;6287522;28;20231;-56
2021/04/18 13:36:46;;;;;;;8.82;5.78;;;;;;;24.37;27.52;102033.00;6289053;28;20227;-54
2021/04/18 13:40:08;;;;;;;5.85;5.32;;;;;;;25.40;25.97;102038.56;6291194;28;20534;-56
2021/04/18 13:43:28;;;;;;;8.15;5.63;;;;;;;25.43;25.30;102029.53;6292643;28;20223;-58
2021/04/18 13:46:50;;;;;;;6.72;4.72;;;;;;;26.17;25.62;102036.25;6279903;28;20231;-56
2021/04/18 13:50:12;;;;;;;7.97;5.60;;;;;;;25.63;25.55;102033.81;6281806;28;20242;-56
2021/04/18 13:53:33;;;;;;;10.30;4.63;;;;;;;26.22;26.01;102031.53;6290551;28;20464;-53
2021/04/18 13:56:53;;;;;;;6.63;5.47;;;;;;;25.06;26.31;102036.75;6293168;28;20310;-63
2021/04/18 14:00:18;;;;;;;8.45;4.43;;;;;;;25.50;27.00;102030.94;6290566;28;20635;-64
2021/04/18 14:03:39;;;;;;;9.30;4.90;;;;;;;25.40;25.98;102027.91;6286683;28;20310;-63
2021/04/18 14:06:59;;;;;;;5.93;4.97;;;;;;;25.47;26.38;102021.28;6289147;28;20230;-64
2021/04/18 14:10:19;;;;;;;9.77;5.30;;;;;;;24.92;27.59;102014.31;6283121;28;20223;-65
2021/04/18 14:13:41;;;;;;;11.60;5.25;;;;;;;24.71;27.54;102021.59;6283842;28;20239;-64
2021/04/18 14:17:03;;;;;;;9.10;5.78;;;;;;;24.55;28.60;102021.47;6282762;28;20219;-64
2021/04/18 14:20:25;;;;;;;9.68;7.55;;;;;;;23.59;29.04;102018.81;6289479;28;20529;-64
2021/04/18 14:23:46;;;;;;;7.47;5.13;;;;;;;22.66;31.55;102021.00;6288603;28;20234;-65
2021/04/18 14:27:07;;;;;;;5.72;4.85;;;;;;;22.02;32.66;102020.81;6273051;28;20226;-64
2021/04/18 14:30:27;;;;;;;7.82;6.82;;;;;;;21.62;32.27;102013.50;6291909;28;20231;-64
2021/04/18 14:33:48;;;;;;;22.05;13.77;;;;;;;21.74;31.87;102015.69;6286937;28;20603;-64
2021/04/18 14:37:12;;;;;;;15.10;10.00;;;;;;;21.69;32.60;102022.94;6289310;28;20223;-64
2021/04/18 14:40:32;;;;;;;9.32;5.85;;;;;;;21.35;33.25;102024.13;6295342;28;20238;-63
2021/04/18 14:43:53;;;;;;;6.18;4.70;;;;;;;20.85;34.90;102018.75;6280434;28;20258;-65
2021/04/18 14:47:13;;;;;;;7.95;5.20;;;;;;;20.87;35.12;102018.72;6281893;28;20295;-64
2021/04/18 14:50:34;;;;;;;6.47;5.63;;;;;;;20.59;34.73;102016.94;6275152;28;20259;-65
2021/04/18 14:53:56;;;;;;;5.72;5.00;;;;;;;20.43;35.69;102016.53;6286890;28;20264;-65
2021/04/18 14:57:16;;;;;;;5.25;4.75;;;;;;;20.38;35.49;102013.19;6283271;28;20632;-66
2021/04/18 15:00:37;;;;;;;6.25;4.97;;;;;;;20.46;35.76;102027.03;6277453;28;20222;-64
2021/04/18 15:03:57;;;;;;;6.32;4.93;;;;;;;20.41;34.92;102023.66;6292204;28;20235;-65
2021/04/18 15:07:18;;;;;;;7.53;5.32;;;;;;;19.84;36.85;102034.16;6275995;28;20613;-65
2021/04/18 15:10:39;;;;;;;6.10;4.75;;;;;;;19.94;36.85;102023.34;6269321;28;20247;-65
2021/04/18 15:14:00;;;;;;;5.82;4.47;;;;;;;19.98;37.20;102020.53;6284609;28;20239;-65
2021/04/18 15:17:20;;;;;;;6.55;5.63;;;;;;;19.48;37.36;102025.44;6285475;28;20220;-64
2021/04/18 15:20:41;;;;;;;7.20;5.10;;;;;;;19.42;37.72;102026.47;6287035;28;20238;-65
2021/04/18 15:24:02;;;;;;;7.57;5.50;;;;;;;18.96;39.00;102008.31;6284598;28;20231;-65
2021/04/18 15:27:24;;;;;;;7.60;4.90;;;;;;;19.51;37.67;102021.88;6276890;28;20223;-65
2021/04/18 15:30:46;;;;;;;5.68;5.18;;;;;;;19.08;38.22;102015.97;6284880;28;20897;-65
2021/04/18 15:34:06;;;;;;;4.80;4.13;;;;;;;19.41;38.63;102026.53;6277077;28;20235;-64
2021/04/18 15:37:26;;;;;;;5.90;4.68;;;;;;;19.00;38.53;102029.34;6289549;28;20228;-64
2021/04/18 15:40:47;;;;;;;5.93;5.35;;;;;;;18.75;38.96;102021.13;6278606;28;20219;-64